Time;durP1;ratioP1;P1;durP2;ratioP2;P2;SDS_P1;SDS_P2;PMS_P1;PMS_P2;Temp;Humidity;BMP_temperature;BMP_pressure;BME280_temperature;BME280_humidity;BME280_pressure;Samples;Min_cycle;Max_cycle;Signal;HPM_P1;HPM_P2
2022/04/04 00:02:21;;;;;;;11.43;4.10;;;2.20;99.90;;;;;;5031608;28;20077;-85
2022/04/04 00:04:47;;;;;;;10.03;3.90;;;2.10;99.90;;;;;;5032309;28;20038;-85
2022/04/04 00:07:12;;;;;;;10.57;4.33;;;2.10;99.90;;;;;;5014651;28;20099;-85
2022/04/04 00:09:38;;;;;;;11.07;4.03;;;2.10;99.90;;;;;;5013939;28;20048;-84
2022/04/04 00:12:05;;;;;;;10.23;3.90;;;2.10;99.90;;;;;;5031988;28;20049;-85
2022/04/04 00:14:30;;;;;;;9.43;4.03;;;2.10;99.90;;;;;;5032016;28;20936;-85
2022/04/04 00:16:56;;;;;;;9.43;3.97;;;2.10;99.90;;;;;;5031340;28;20050;-84
2022/04/04 00:19:25;;;;;;;11.63;3.80;;;2.10;99.90;;;;;;5032007;28;20048;-85
2022/04/04 00:21:50;;;;;;;11.27;4.17;;;2.10;99.90;;;;;;5031970;28;20049;-85
2022/04/04 00:24:16;;;;;;;10.13;3.80;;;2.10;99.90;;;;;;5033973;28;20191;-84
2022/04/04 00:26:41;;;;;;;9.20;3.47;;;2.10;99.90;;;;;;5035809;28;20034;-84
2022/04/04 00:29:07;;;;;;;9.90;3.80;;;2.00;99.90;;;;;;5021775;23;20053;-84
2022/04/04 00:31:32;;;;;;;11.40;3.90;;;2.00;99.90;;;;;;5033380;28;20107;-85
2022/04/04 00:33:58;;;;;;;10.10;3.63;;;2.00;99.90;;;;;;5035580;28;20049;-85
2022/04/04 00:36:23;;;;;;;9.20;3.60;;;2.00;99.90;;;;;;5017150;28;20807;-85
2022/04/04 00:38:49;;;;;;;9.03;3.67;;;2.00;99.90;;;;;;5017734;28;20052;-85
2022/04/04 00:41:15;;;;;;;10.70;3.40;;;2.00;99.90;;;;;;5017569;28;20041;-85
2022/04/04 00:43:41;;;;;;;9.70;4.17;;;2.00;99.90;;;;;;5017078;28;20060;-85
2022/04/04 00:46:07;;;;;;;11.37;4.10;;;2.10;99.90;;;;;;5017840;28;20048;-85
2022/04/04 00:48:34;;;;;;;10.50;3.73;;;2.10;99.90;;;;;;5035278;28;20038;-85
2022/04/04 00:51:01;;;;;;;11.43;4.23;;;2.20;99.90;;;;;;5035015;28;20045;-84
2022/04/04 00:53:27;;;;;;;9.53;3.90;;;2.00;99.90;;;;;;5017326;28;20041;-85
2022/04/04 00:55:54;;;;;;;13.00;4.13;;;2.00;99.90;;;;;;5017707;28;20099;-85
2022/04/04 00:58:20;;;;;;;9.80;3.87;;;2.10;99.90;;;;;;5016750;28;20093;-85
2022/04/04 01:00:48;;;;;;;10.30;3.90;;;2.10;99.90;;;;;;5035445;28;20076;-85
2022/04/04 01:03:16;;;;;;;9.17;3.47;;;2.20;99.90;;;;;;5017008;28;20060;-85
2022/04/04 01:05:44;;;;;;;10.63;3.97;;;2.10;99.90;;;;;;5016859;28;20042;-85
2022/04/04 01:08:14;;;;;;;10.97;4.07;;;2.30;99.90;;;;;;5017576;28;20081;-85
2022/04/04 01:10:42;;;;;;;10.80;4.23;;;2.10;99.90;;;;;;5017126;28;20041;-85
2022/04/04 01:13:09;;;;;;;12.07;4.70;;;2.20;99.90;;;;;;5016477;28;20092;-85
2022/04/04 01:15:35;;;;;;;10.10;4.27;;;2.20;99.90;;;;;;5034588;28;20401;-84
2022/04/04 01:18:01;;;;;;;10.67;4.23;;;2.30;99.90;;;;;;5017163;28;20098;-85
2022/04/04 01:20:27;;;;;;;10.77;4.70;;;2.30;99.90;;;;;;5016021;28;20488;-84
2022/04/04 01:22:52;;;;;;;11.30;4.57;;;2.40;99.90;;;;;;5017134;28;20048;-85
2022/04/04 01:25:29;;;;;;;10.97;4.67;;;2.40;99.90;;;;;;5034255;28;20132;-85
2022/04/04 01:27:55;;;;;;;13.60;5.07;;;2.50;99.90;;;;;;5034999;28;20042;-85
2022/04/04 01:30:22;;;;;;;11.60;5.33;;;2.50;99.90;;;;;;5034317;28;20055;-85
2022/04/04 01:32:49;;;;;;;13.83;5.53;;;2.70;99.90;;;;;;5016109;28;20045;-84
2022/04/04 01:35:19;;;;;;;12.47;5.67;;;2.60;99.90;;;;;;5033854;28;20473;-85
2022/04/04 01:37:45;;;;;;;14.20;6.73;;;2.60;99.90;;;;;;5034340;28;20045;-84
2022/04/04 01:40:11;;;;;;;14.20;6.50;;;2.70;99.90;;;;;;5016064;28;20056;-85
2022/04/04 01:42:37;;;;;;;16.13;7.63;;;2.70;99.90;;;;;;5016714;28;20116;-85
2022/04/04 01:45:05;;;;;;;16.30;6.97;;;2.70;99.90;;;;;;5016404;28;20049;-84
2022/04/04 01:47:32;;;;;;;14.53;6.83;;;2.70;99.90;;;;;;5033790;28;20049;-85
2022/04/04 01:49:57;;;;;;;13.63;7.03;;;2.70;99.90;;;;;;5016852;28;20072;-85
2022/04/04 01:52:23;;;;;;;14.10;6.87;;;2.60;99.90;;;;;;5034342;28;20375;-84
2022/04/04 01:54:48;;;;;;;14.20;7.67;;;2.60;99.90;;;;;;5015873;28;20051;-85
2022/04/04 01:57:14;;;;;;;13.37;6.93;;;2.70;99.90;;;;;;5033955;28;20485;-84
2022/04/04 01:59:40;;;;;;;13.83;6.93;;;2.60;99.90;;;;;;5034056;28;20400;-85
2022/04/04 02:02:06;;;;;;;16.13;7.30;;;2.60;99.90;;;;;;5014730;28;20469;-85
2022/04/04 02:04:32;;;;;;;15.53;7.40;;;2.60;99.90;;;;;;5032696;28;20547;-85
2022/04/04 02:06:57;;;;;;;17.63;7.47;;;2.60;99.90;;;;;;5033416;28;20041;-85
2022/04/04 02:09:23;;;;;;;14.87;7.20;;;2.60;99.90;;;;;;5032904;28;20037;-85
2022/04/04 02:11:49;;;;;;;15.40;7.37;;;2.60;99.90;;;;;;5034228;28;20068;-85
2022/04/04 02:14:15;;;;;;;14.20;7.17;;;2.60;99.90;;;;;;5015673;28;20511;-85
2022/04/04 02:16:42;;;;;;;14.17;6.20;;;2.50;99.90;;;;;;5015570;28;20108;-85
2022/04/04 02:19:08;;;;;;;14.00;6.90;;;2.60;99.90;;;;;;5015972;28;20041;-85
2022/04/04 02:21:34;;;;;;;15.77;7.10;;;2.60;99.90;;;;;;5015060;28;20037;-86
2022/04/04 02:23:59;;;;;;;13.97;7.10;;;2.70;99.90;;;;;;5015933;28;20095;-86
2022/04/04 02:26:25;;;;;;;13.53;6.70;;;2.70;99.90;;;;;;5015656;28;20080;-85
2022/04/04 02:28:50;;;;;;;14.97;7.43;;;2.60;99.90;;;;;;5032389;28;20517;-85
2022/04/04 02:31:16;;;;;;;14.37;7.13;;;2.90;99.90;;;;;;5032091;28;20050;-85
2022/04/04 02:33:42;;;;;;;13.57;7.17;;;2.70;99.90;;;;;;5033266;28;20044;-85
2022/04/04 02:36:08;;;;;;;13.47;6.93;;;2.70;99.90;;;;;;5014872;28;20052;-85
2022/04/04 02:38:34;;;;;;;14.93;7.60;;;2.90;99.90;;;;;;5034207;28;20081;-85
2022/04/04 02:41:00;;;;;;;16.90;7.63;;;2.60;99.90;;;;;;5033497;28;20076;-85
2022/04/04 02:43:26;;;;;;;15.27;7.70;;;2.70;99.90;;;;;;5032026;28;20038;-85
2022/04/04 02:45:52;;;;;;;14.80;7.53;;;2.70;99.90;;;;;;5034145;28;20047;-85
2022/04/04 02:48:17;;;;;;;16.13;7.70;;;2.70;99.90;;;;;;5033118;28;20077;-85
2022/04/04 02:50:44;;;;;;;16.13;8.30;;;2.70;99.90;;;;;;5014708;28;20131;-85
2022/04/04 02:53:11;;;;;;;15.43;7.80;;;2.70;99.90;;;;;;5015430;28;20052;-84
2022/04/04 02:58:21;;;;;;;19.13;8.50;;;4.20;99.90;;;;;;5032212;28;20049;-85
2022/04/04 03:00:46;;;;;;;18.53;8.73;;;2.70;99.90;;;;;;5033114;28;20188;-85
2022/04/04 03:03:12;;;;;;;18.83;8.77;;;2.70;99.90;;;;;;5014885;28;20053;-85
2022/04/04 03:05:39;;;;;;;16.57;8.00;;;2.70;99.90;;;;;;5032406;28;20052;-85
2022/04/04 03:08:05;;;;;;;15.23;7.97;;;2.70;99.90;;;;;;5014235;28;20053;-85
2022/04/04 03:10:32;;;;;;;15.10;8.10;;;2.70;99.90;;;;;;5014897;28;20056;-85
2022/04/04 03:12:59;;;;;;;17.77;8.30;;;2.80;99.90;;;;;;5032083;28;20045;-85
2022/04/04 03:15:25;;;;;;;18.37;8.67;;;2.80;99.90;;;;;;5015152;28;20499;-85
2022/04/04 03:17:55;;;;;;;16.47;9.03;;;2.80;99.90;;;;;;5031996;28;20064;-85
2022/04/04 03:20:22;;;;;;;17.60;8.67;;;2.90;99.90;;;;;;5032583;28;20056;-85
2022/04/04 03:22:51;;;;;;;16.53;8.63;;;2.90;99.90;;;;;;5032993;28;20049;-85
2022/04/04 03:25:17;;;;;;;18.50;9.07;;;2.90;99.90;;;;;;5014020;28;20045;-85
2022/04/04 03:27:45;;;;;;;17.00;8.73;;;3.00;99.90;;;;;;5032303;28;20087;-85
2022/04/04 03:30:17;;;;;;;18.23;8.67;;;3.00;99.90;;;;;;5032186;28;20100;-85
2022/04/04 03:32:48;;;;;;;15.53;8.77;;;3.10;99.90;;;;;;5014004;28;20125;-85
2022/04/04 03:35:14;;;;;;;17.93;9.27;;;3.10;99.90;;;;;;5032488;28;20077;-86
2022/04/04 03:37:42;;;;;;;18.10;9.13;;;3.10;99.90;;;;;;5032704;28;20073;-86
2022/04/04 03:40:12;;;;;;;18.20;9.10;;;3.10;99.90;;;;;;5031656;28;20406;-84
2022/04/04 03:42:38;;;;;;;20.63;10.03;;;3.20;99.90;;;;;;5032264;28;20076;-85
2022/04/04 03:45:06;;;;;;;19.60;9.83;;;3.20;99.90;;;;;;5014666;28;20050;-85
2022/04/04 03:47:32;;;;;;;19.40;9.50;;;3.20;99.90;;;;;;5013401;28;20046;-84
2022/04/04 03:49:59;;;;;;;17.93;9.97;;;3.30;99.90;;;;;;5014878;28;20495;-85
2022/04/04 03:52:25;;;;;;;17.93;9.67;;;3.50;99.90;;;;;;5014716;28;20095;-84
2022/04/04 03:54:51;;;;;;;15.80;8.73;;;3.50;99.90;;;;;;5032070;28;20099;-85
2022/04/04 03:57:17;;;;;;;18.23;9.27;;;3.50;99.90;;;;;;5033719;28;20045;-85
2022/04/04 03:59:44;;;;;;;16.93;9.50;;;3.30;99.90;;;;;;5018363;28;20057;-85
2022/04/04 04:02:11;;;;;;;18.23;9.67;;;3.60;99.90;;;;;;5035477;28;20049;-85
2022/04/04 04:04:37;;;;;;;17.60;9.13;;;3.30;99.90;;;;;;5018031;28;20107;-85
2022/04/04 04:07:03;;;;;;;16.27;8.47;;;3.30;99.90;;;;;;5035663;28;20045;-84
2022/04/04 04:09:29;;;;;;;16.73;9.33;;;3.40;99.90;;;;;;5035423;28;20544;-85
2022/04/04 04:11:56;;;;;;;17.20;9.83;;;3.40;99.90;;;;;;5018400;28;20049;-85
2022/04/04 04:14:22;;;;;;;17.30;9.13;;;3.40;99.90;;;;;;5017218;28;20130;-84
2022/04/04 04:16:47;;;;;;;22.20;10.03;;;3.30;99.90;;;;;;5035721;28;20127;-85
2022/04/04 04:20:19;;;;;;;19.60;9.77;;;3.30;99.90;;;;;;5035615;28;20076;-85
2022/04/04 04:21:58;;;;;;;17.03;9.00;;;3.30;99.90;;;;;;5035066;28;20111;-84
2022/04/04 04:24:24;;;;;;;16.17;9.27;;;3.40;99.90;;;;;;5035269;28;20050;-85
2022/04/04 04:26:50;;;;;;;19.07;9.20;;;3.50;99.90;;;;;;5037381;28;20041;-85
2022/04/04 04:29:16;;;;;;;17.47;9.77;;;3.40;99.90;;;;;;5034446;28;20049;-85
2022/04/04 04:31:42;;;;;;;18.53;10.23;;;3.40;99.90;;;;;;5018048;28;20136;-85
2022/04/04 04:34:08;;;;;;;16.03;9.00;;;3.40;99.90;;;;;;5018149;28;20056;-85
2022/04/04 04:36:34;;;;;;;16.77;9.40;;;3.40;99.90;;;;;;5019365;28;20460;-85
2022/04/04 04:38:59;;;;;;;17.50;9.50;;;3.40;99.90;;;;;;5035490;28;20692;-84
2022/04/04 04:41:25;;;;;;;17.07;9.37;;;3.40;99.90;;;;;;5017620;28;20449;-85
2022/04/04 04:43:51;;;;;;;19.70;10.33;;;3.40;99.90;;;;;;5045233;28;20051;-85
2022/04/04 04:46:16;;;;;;;19.17;10.20;;;3.40;99.90;;;;;;5053913;28;20098;-85
2022/04/04 04:48:42;;;;;;;23.43;10.90;;;3.40;99.90;;;;;;5019310;28;20041;-85
2022/04/04 04:51:07;;;;;;;17.97;9.80;;;3.60;99.90;;;;;;5034878;28;20076;-85
2022/04/04 04:53:34;;;;;;;17.37;10.17;;;3.40;99.90;;;;;;5017592;28;20099;-85
2022/04/04 04:56:00;;;;;;;17.10;9.60;;;3.30;99.90;;;;;;5035708;28;20057;-85
2022/04/04 04:58:26;;;;;;;17.67;9.93;;;3.40;99.90;;;;;;5034433;28;20037;-85
2022/04/04 05:00:51;;;;;;;19.57;11.10;;;3.30;99.90;;;;;;5036033;28;20543;-85
2022/04/04 05:03:26;;;;;;;17.73;9.80;;;3.30;99.90;;;;;;5017917;28;20048;-86
2022/04/04 05:05:51;;;;;;;17.50;10.00;;;3.30;99.90;;;;;;5017825;28;20493;-85
2022/04/04 05:08:17;;;;;;;18.30;10.80;;;3.30;99.90;;;;;;5034139;28;20049;-86
2022/04/04 05:10:43;;;;;;;17.87;10.13;;;3.30;99.90;;;;;;5016168;28;20045;-86
2022/04/04 05:13:08;;;;;;;20.87;11.10;;;3.20;99.90;;;;;;5017205;28;20435;-86
2022/04/04 05:15:34;;;;;;;19.43;11.23;;;3.30;99.90;;;;;;5017056;28;20435;-86
2022/04/04 05:18:00;;;;;;;21.00;11.90;;;3.20;99.90;;;;;;5015719;28;20053;-86
2022/04/04 05:20:26;;;;;;;21.33;11.27;;;3.20;99.90;;;;;;5016967;28;20041;-86
2022/04/04 05:22:51;;;;;;;18.27;10.50;;;3.20;99.90;;;;;;5034967;28;20038;-86
2022/04/04 05:25:17;;;;;;;20.23;11.33;;;3.20;99.90;;;;;;5016229;28;20061;-86
2022/04/04 05:27:43;;;;;;;20.30;11.33;;;3.20;99.90;;;;;;5016905;28;20460;-86
2022/04/04 05:30:09;;;;;;;19.80;11.10;;;3.30;99.90;;;;;;5016427;28;20069;-86
2022/04/04 05:32:36;;;;;;;19.27;10.53;;;3.30;99.90;;;;;;5016265;28;20488;-86
2022/04/04 05:35:05;;;;;;;20.97;9.70;;;3.30;99.90;;;;;;5016778;28;20052;-86
2022/04/04 05:37:32;;;;;;;20.83;11.70;;;3.30;99.90;;;;;;5034181;28;20092;-86
2022/04/04 05:39:58;;;;;;;18.37;10.57;;;3.30;99.90;;;;;;5034000;28;20056;-86
2022/04/04 05:42:23;;;;;;;20.07;10.50;;;3.30;99.90;;;;;;5034142;28;20053;-86
2022/04/04 05:44:49;;;;;;;17.20;10.60;;;3.30;99.90;;;;;;5034295;28;20392;-86
2022/04/04 05:47:17;;;;;;;15.50;10.00;;;3.40;99.90;;;;;;5033509;28;20049;-86
2022/04/04 05:49:44;;;;;;;18.63;10.37;;;3.60;99.90;;;;;;5016499;28;20472;-86
2022/04/04 05:52:09;;;;;;;15.33;9.43;;;3.50;99.90;;;;;;5034647;28;20045;-86
2022/04/04 05:54:53;;;;;;;17.40;9.87;;;3.60;99.90;;;;;;5015737;28;20104;-86
2022/04/04 05:57:22;;;;;;;19.10;9.90;;;3.50;99.90;;;;;;5016025;28;20048;-86
2022/04/04 05:59:48;;;;;;;18.17;9.90;;;3.50;99.90;;;;;;5033344;28;20103;-86
2022/04/04 06:02:13;;;;;;;16.97;10.00;;;3.50;99.90;;;;;;5015957;28;20547;-85
2022/04/04 06:04:39;;;;;;;17.70;9.63;;;3.50;99.90;;;;;;5016640;28;20056;-85
2022/04/04 06:07:05;;;;;;;16.87;9.77;;;3.50;99.90;;;;;;5016003;28;20473;-85
2022/04/04 06:09:30;;;;;;;18.90;9.40;;;3.60;99.90;;;;;;5033781;28;20129;-85
2022/04/04 06:11:56;;;;;;;15.87;9.47;;;3.50;99.90;;;;;;5016607;28;20131;-89
2022/04/04 06:14:23;;;;;;;18.43;9.87;;;3.60;99.90;;;;;;5018199;28;20440;-90
2022/04/04 06:16:48;;;;;;;17.07;9.10;;;3.70;99.90;;;;;;5023491;28;20108;-90
2022/04/04 06:19:14;;;;;;;20.10;11.50;;;3.70;99.90;;;;;;5040041;28;20156;-95
2022/04/04 06:21:40;;;;;;;17.43;9.20;;;3.80;99.90;;;;;;5024016;28;20034;-89
2022/04/04 06:24:05;;;;;;;18.33;9.27;;;3.80;99.90;;;;;;5008300;28;20046;-94
2022/04/04 06:26:31;;;;;;;19.20;10.63;;;3.90;99.90;;;;;;5036473;28;20056;-91
2022/04/04 06:28:57;;;;;;;14.80;8.73;;;3.90;99.90;;;;;;5037852;28;20128;-92
2022/04/04 06:31:23;;;;;;;19.80;10.77;;;4.00;99.90;;;;;;5016451;28;20041;-90
2022/04/04 06:33:48;;;;;;;17.50;9.93;;;4.00;99.90;;;;;;5041809;28;20041;-91
2022/04/04 06:36:14;;;;;;;16.67;9.73;;;4.00;99.90;;;;;;5037272;28;20049;-88
2022/04/04 06:38:40;;;;;;;17.17;9.67;;;4.10;99.90;;;;;;5019286;28;20128;-94
2022/04/04 06:41:05;;;;;;;18.13;9.90;;;4.10;99.90;;;;;;5036198;28;20049;-93
2022/04/04 06:43:31;;;;;;;16.57;9.73;;;4.20;99.90;;;;;;5017305;28;20041;-91
2022/04/04 06:45:57;;;;;;;16.80;9.07;;;4.20;99.90;;;;;;5018651;28;20088;-91
2022/04/04 06:48:23;;;;;;;17.50;9.20;;;4.20;99.90;;;;;;5015189;28;20481;-92
2022/04/04 06:50:51;;;;;;;15.93;9.00;;;4.30;99.90;;;;;;4995850;28;20050;-93
2022/04/04 06:53:21;;;;;;;16.10;9.00;;;4.30;99.90;;;;;;4995757;28;20481;-90
2022/04/04 06:55:53;;;;;;;15.20;8.80;;;4.20;99.90;;;;;;5014044;28;20046;-90
2022/04/04 06:58:26;;;;;;;16.40;9.97;;;5.50;99.90;;;;;;5019408;28;20037;-91
2022/04/04 07:00:51;;;;;;;15.68;9.23;;;4.10;99.90;;;;;;5053601;28;20041;-91
2022/04/04 07:03:20;;;;;;;16.90;9.57;;;5.60;99.90;;;;;;5052624;28;20062;-87
2022/04/04 07:05:59;;;;;;;15.63;8.63;;;4.30;99.90;;;;;;5050367;28;20029;-96
2022/04/04 07:08:30;;;;;;;19.20;9.27;;;6.20;99.90;;;;;;5040690;28;20178;-96
2022/04/04 07:11:14;;;;;;;16.13;8.43;;;5.80;99.90;;;;;;5036713;28;20080;-92
2022/04/04 07:13:57;;;;;;;16.52;8.55;;;5.40;99.90;;;;;;5053492;28;20041;-93
2022/04/04 07:16:38;;;;;;;13.17;7.60;;;;;;;;;;5034585;23;20049;-92
2022/04/04 07:19:14;;;;;;;;;;;;;;;;;;;;;
2022/04/04 07:21:51;;;;;;;14.13;7.03;;;4.80;99.90;;;;;;4995546;28;20060;-93
2022/04/04 07:24:35;;;;;;;14.40;7.73;;;5.10;99.90;;;;;;5016159;28;20045;-96
2022/04/04 07:27:16;;;;;;;14.87;7.73;;;4.70;99.90;;;;;;5034331;28;20081;-91
2022/04/04 07:29:42;;;;;;;12.40;7.03;;;5.30;99.90;;;;;;5013035;28;20126;-92
2022/04/04 07:32:09;;;;;;;14.93;8.47;;;5.70;99.90;;;;;;5024267;28;20056;-91
2022/04/04 07:34:35;;;;;;;16.43;8.57;;;5.00;99.90;;;;;;5024526;28;20044;-92
2022/04/04 07:37:02;;;;;;;15.83;8.53;;;5.00;99.90;;;;;;5031780;28;20095;-93
2022/04/04 07:39:27;;;;;;;14.83;9.30;;;5.10;99.90;;;;;;5000478;28;20057;-93
2022/04/04 07:41:53;;;;;;;16.47;8.87;;;4.90;99.90;;;;;;4995889;28;20038;-94
2022/04/04 07:44:18;;;;;;;16.50;8.73;;;4.90;99.90;;;;;;5003309;28;20061;-96
2022/04/04 07:46:47;;;;;;;15.47;9.77;;;4.80;99.90;;;;;;5014827;28;20038;-94
2022/04/04 07:49:13;;;;;;;15.97;8.60;;;4.80;99.90;;;;;;4997008;28;20485;-95
2022/04/04 07:51:39;;;;;;;16.37;9.83;;;4.80;99.90;;;;;;4996898;28;20184;-90
2022/04/04 07:54:05;;;;;;;17.60;9.70;;;4.80;99.90;;;;;;5015539;28;20042;-94
2022/04/04 07:56:36;;;;;;;14.30;8.80;;;4.90;99.90;;;;;;5020750;28;20116;-92
2022/04/04 07:59:02;;;;;;;18.80;10.63;;;4.70;99.90;;;;;;5036348;28;20045;-93
2022/04/04 08:05:10;;;;;;;20.53;9.83;;;4.70;99.90;;;;;;5019991;28;20381;-94
2022/04/04 08:07:37;;;;;;;17.83;9.00;;;4.80;99.90;;;;;;4999191;28;20046;-92
2022/04/04 08:10:04;;;;;;;15.73;8.97;;;4.80;99.90;;;;;;5014349;28;20046;-93
2022/04/04 08:12:33;;;;;;;15.80;10.00;;;4.80;99.90;;;;;;5033310;28;20042;-89
2022/04/04 08:14:59;;;;;;;14.30;9.20;;;4.80;99.90;;;;;;5027424;28;20100;-86
2022/04/04 08:17:24;;;;;;;14.93;9.70;;;4.80;99.90;;;;;;5013010;28;20058;-87
2022/04/04 08:19:50;;;;;;;16.40;9.23;;;4.80;99.90;;;;;;5013979;28;20493;-90
2022/04/04 08:22:19;;;;;;;16.60;10.13;;;4.80;99.90;;;;;;5011750;28;20095;-87
2022/04/04 08:24:45;;;;;;;18.33;10.83;;;4.80;99.90;;;;;;5012633;28;20042;-87
2022/04/04 08:27:11;;;;;;;18.70;11.73;;;4.70;99.90;;;;;;4994809;28;20553;-89
2022/04/04 08:29:37;;;;;;;17.83;11.03;;;4.70;99.90;;;;;;4994531;28;20035;-90
2022/04/04 08:32:03;;;;;;;19.37;11.07;;;4.70;99.90;;;;;;5020781;28;20041;-91
2022/04/04 08:34:29;;;;;;;19.30;11.70;;;4.70;99.90;;;;;;5033058;28;20048;-95
2022/04/04 08:36:55;;;;;;;19.83;11.67;;;4.70;99.90;;;;;;5023723;28;20029;-94
2022/04/04 08:39:20;;;;;;;16.97;11.60;;;4.70;99.90;;;;;;5020993;28;20042;-93
2022/04/04 08:41:46;;;;;;;19.73;11.83;;;4.70;99.90;;;;;;5034699;28;20080;-92
2022/04/04 08:44:15;;;;;;;19.20;11.93;;;4.60;99.90;;;;;;5034636;28;20084;-91
2022/04/04 08:46:57;;;;;;;19.23;11.50;;;4.70;99.90;;;;;;5037078;28;20045;-90
2022/04/04 08:49:34;;;;;;;22.53;13.70;;;5.30;99.90;;;;;;5017095;28;20042;-91
2022/04/04 08:52:03;;;;;;;17.27;11.17;;;4.30;99.90;;;;;;5018162;28;20046;-92
2022/04/04 08:54:29;;;;;;;25.97;16.43;;;4.60;99.90;;;;;;5034728;28;20419;-91
2022/04/04 08:56:55;;;;;;;21.30;13.10;;;4.60;99.90;;;;;;5018076;28;20037;-92
2022/04/04 08:59:20;;;;;;;24.97;14.77;;;4.60;99.90;;;;;;5017656;28;20511;-92
2022/04/04 09:01:46;;;;;;;24.50;14.67;;;4.60;99.90;;;;;;5035541;28;20545;-90
2022/04/04 09:04:17;;;;;;;18.53;11.77;;;4.50;99.90;;;;;;5017161;28;20493;-91
2022/04/04 09:07:03;;;;;;;20.27;12.90;;;4.50;99.90;;;;;;5043788;28;20091;-91
2022/04/04 09:09:47;;;;;;;32.10;21.13;;;4.50;99.90;;;;;;5036855;28;20535;-89
2022/04/04 09:12:14;;;;;;;;;;;4.50;99.90;;;;;;5055613;28;20037;-92
2022/04/04 09:14:46;;;;;;;19.13;11.60;;;4.50;99.90;;;;;;5070409;28;19952;-92
2022/04/04 09:17:13;;;;;;;23.57;13.97;;;4.50;99.90;;;;;;5036345;28;20075;-89
2022/04/04 09:19:39;;;;;;;22.40;14.43;;;4.50;99.90;;;;;;5055217;28;20088;-90
2022/04/04 09:22:08;;;;;;;19.50;12.60;;;4.60;99.90;;;;;;5055209;28;20124;-89
2022/04/04 09:24:47;;;;;;;16.17;10.20;;;4.60;99.90;;;;;;5054118;28;20060;-89
2022/04/04 09:27:21;;;;;;;16.63;11.40;;;4.70;99.90;;;;;;5055089;28;20049;-86
2022/04/04 09:29:52;;;;;;;17.87;12.00;;;4.70;99.90;;;;;;5058252;28;20033;-93
2022/04/04 09:32:18;;;;;;;18.07;11.00;;;4.90;99.90;;;;;;5056514;28;20098;-92
2022/04/04 09:35:00;;;;;;;13.97;7.83;;;4.90;99.90;;;;;;5043047;28;20485;-96
2022/04/04 09:37:31;;;;;;;12.23;7.40;;;5.00;99.90;;;;;;5039314;28;20041;-96
2022/04/04 09:40:19;;;;;;;13.70;8.57;;;5.00;99.90;;;;;;5030847;28;20053;-92
2022/04/04 09:42:53;;;;;;;12.07;6.50;;;5.00;99.90;;;;;;5013935;28;20045;-92
2022/04/04 09:45:28;;;;;;;14.27;7.97;;;5.00;99.90;;;;;;5013501;28;20048;-94
2022/04/04 09:48:02;;;;;;;13.40;7.70;;;4.80;99.90;;;;;;5030779;28;20045;-90
2022/04/04 09:50:31;;;;;;;13.55;8.27;;;4.90;99.90;;;;;;5013581;28;20037;-90
2022/04/04 09:52:58;;;;;;;13.10;7.10;;;4.90;99.90;;;;;;5034004;28;20050;-93
2022/04/04 09:55:38;;;;;;;14.77;9.53;;;4.90;99.90;;;;;;5037094;28;20038;-88
2022/04/04 09:58:17;;;;;;;12.87;7.73;;;4.90;99.90;;;;;;5036630;28;20508;-91
2022/04/04 10:00:44;;;;;;;14.47;8.83;;;4.90;99.90;;;;;;5038573;28;20118;-92
2022/04/04 10:03:14;;;;;;;15.40;9.10;;;4.80;99.90;;;;;;5016693;28;20136;-90
2022/04/04 10:05:45;;;;;;;12.67;7.27;;;4.90;99.90;;;;;;5016243;28;20128;-92
2022/04/04 10:08:15;;;;;;;12.37;7.00;;;4.80;99.90;;;;;;5037764;28;20048;-88
2022/04/04 10:10:43;;;;;;;14.80;8.63;;;4.80;99.90;;;;;;5035529;28;20045;-88
2022/04/04 10:13:11;;;;;;;13.80;7.83;;;4.80;99.90;;;;;;5015561;28;20037;-88
2022/04/04 10:15:37;;;;;;;12.07;7.37;;;4.90;99.90;;;;;;5016116;28;20342;-89
2022/04/04 10:18:03;;;;;;;13.47;7.73;;;4.90;99.90;;;;;;5033667;28;20049;-89
2022/04/04 10:20:29;;;;;;;13.83;7.93;;;4.80;99.90;;;;;;5014857;28;20053;-89
2022/04/04 10:22:56;;;;;;;11.37;6.70;;;4.90;99.90;;;;;;5049613;28;20393;-89
2022/04/04 10:25:26;;;;;;;12.43;6.80;;;4.90;99.90;;;;;;5028519;28;20049;-89
2022/04/04 10:27:52;;;;;;;12.40;6.80;;;4.90;99.90;;;;;;4999177;28;20052;-90
2022/04/04 10:30:18;;;;;;;12.20;6.77;;;4.90;99.90;;;;;;5017336;28;20045;-90
2022/04/04 10:32:54;;;;;;;11.53;5.90;;;5.00;99.90;;;;;;5012870;28;20132;-88
2022/04/04 10:35:22;;;;;;;9.20;4.83;;;5.00;99.90;;;;;;4995054;28;20049;-87
2022/04/04 10:37:47;;;;;;;10.60;5.17;;;4.90;99.90;;;;;;4995960;28;20038;-87
2022/04/04 10:40:27;;;;;;;9.97;5.30;;;4.90;99.90;;;;;;5013912;28;20042;-87
2022/04/04 10:43:13;;;;;;;11.07;4.77;;;4.90;99.90;;;;;;4995796;28;20506;-90
2022/04/04 10:45:52;;;;;;;10.47;4.77;;;4.90;99.90;;;;;;4996596;28;20046;-87
2022/04/04 10:48:19;;;;;;;9.90;5.23;;;4.90;99.90;;;;;;5013178;28;20045;-93
2022/04/04 10:50:46;;;;;;;11.60;5.27;;;5.70;99.90;;;;;;4995829;28;20054;-92
2022/04/04 10:53:53;;;;;;;10.70;5.00;;;4.90;99.90;;;;;;4995865;28;20049;-93
2022/04/04 10:56:30;;;;;;;9.80;5.23;;;5.10;99.90;;;;;;4995301;28;20489;-88
2022/04/04 10:59:15;;;;;;;9.37;4.87;;;4.90;99.90;;;;;;5013340;28;20057;-86
2022/04/04 11:01:48;;;;;;;10.70;5.23;;;5.10;99.90;;;;;;4996448;28;20100;-86
2022/04/04 11:07:37;;;;;;;10.80;5.45;;;5.10;99.90;;;;;;4994711;28;20049;-85
2022/04/04 11:07:48;;;;;;;13.80;5.57;;;5.10;99.90;;;;;;5012200;28;20046;-85
2022/04/04 11:10:57;;;;;;;;;;;;;;;;;;;;;
2022/04/04 11:13:26;;;;;;;11.93;5.90;;;5.10;99.90;;;;;;5016510;28;20045;-89
2022/04/04 11:15:54;;;;;;;10.70;5.13;;;5.90;99.90;;;;;;5061755;28;20031;-90
2022/04/04 11:18:34;;;;;;;;;;;;;;;;;;;;;
2022/04/04 11:21:08;;;;;;;10.37;5.10;;;6.70;99.90;;;;;;5053077;28;20135;-88
2022/04/04 11:23:36;;;;;;;12.57;5.95;;;5.20;99.90;;;;;;5023544;28;20067;-89
2022/04/04 11:26:04;;;;;;;10.40;5.20;;;5.30;99.90;;;;;;5003466;28;20071;-89
2022/04/04 11:28:35;;;;;;;11.13;5.60;;;6.40;99.90;;;;;;5012650;28;20038;-88
2022/04/04 11:31:30;;;;;;;10.63;5.37;;;5.30;99.90;;;;;;5012649;28;20042;-89
2022/04/04 11:33:56;;;;;;;;;;;5.40;99.90;;;;;;4999028;28;20053;-90
2022/04/04 11:36:43;;;;;;;12.23;5.10;;;5.30;99.90;;;;;;5038994;28;19921;-89
2022/04/04 11:39:10;;;;;;;11.10;5.43;;;5.30;99.90;;;;;;5000158;28;20046;-88
2022/04/04 11:42:02;;;;;;;12.80;6.10;;;5.30;99.90;;;;;;5003969;28;20046;-89
2022/04/04 11:44:31;;;;;;;11.63;5.43;;;5.40;99.90;;;;;;5028754;28;20042;-87
2022/04/04 11:47:17;;;;;;;10.23;4.93;;;5.40;99.90;;;;;;5007546;28;20090;-91
2022/04/04 11:49:43;;;;;;;10.93;5.60;;;5.40;99.90;;;;;;5008700;28;20110;-88
2022/04/04 11:52:24;;;;;;;10.67;5.50;;;5.30;99.90;;;;;;5017396;28;20069;-86
2022/04/04 11:54:53;;;;;;;11.90;5.30;;;5.50;99.90;;;;;;5019015;28;20042;-89
2022/04/04 11:57:21;;;;;;;11.17;5.40;;;5.50;99.90;;;;;;5020999;28;20041;-87
2022/04/04 12:00:28;;;;;;;11.00;5.43;;;5.50;99.90;;;;;;5018020;28;20044;-91
2022/04/04 12:03:01;;;;;;;10.90;5.47;;;5.50;99.90;;;;;;5003984;28;20133;-96
2022/04/04 12:05:44;;;;;;;11.53;5.83;;;6.80;99.90;;;;;;5016313;28;20528;-95
2022/04/04 12:08:11;;;;;;;13.33;5.77;;;5.70;99.90;;;;;;5015633;28;20046;-94
2022/04/04 12:10:47;;;;;;;11.07;5.37;;;5.20;99.90;;;;;;4996171;28;20104;-94
2022/04/04 12:14:03;;;;;;;11.17;5.40;;;6.20;99.90;;;;;;5049006;23;20061;-94
2022/04/04 12:19:31;;;;;;;11.13;4.73;;;5.80;99.90;;;;;;1794599;23;21175;-90
2022/04/04 12:21:57;;;;;;;10.53;5.07;;;5.60;99.90;;;;;;5014498;28;20112;-95
2022/04/04 12:27:52;;;;;;;9.37;4.60;;;5.70;99.90;;;;;;5016711;28;20050;-96
2022/04/04 12:30:36;;;;;;;9.73;4.30;;;6.10;99.90;;;;;;5022651;28;20046;-96
2022/04/04 12:33:12;;;;;;;;;;;6.30;99.90;;;;;;5020289;28;20106;-95
2022/04/04 12:39:32;;;;;;;10.52;4.70;;;6.10;99.90;;;;;;5116386;23;20054;-96
2022/04/04 12:42:39;;;;;;;10.50;4.40;;;5.80;99.90;;;;;;5023444;28;20433;-96
2022/04/04 12:45:30;;;;;;;9.57;4.73;;;6.00;99.90;;;;;;5029092;28;20022;-96
2022/04/04 12:49:05;;;;;;;10.47;4.30;;;5.30;99.90;;;;;;5283410;23;20065;-96
2022/04/04 12:52:00;;;;;;;9.63;4.50;;;5.20;99.90;;;;;;5044739;28;20057;-95
2022/04/04 12:57:44;;;;;;;11.13;4.10;;;5.20;99.90;;;;;;5007850;28;20353;-96
2022/04/04 13:00:51;;;;;;;9.33;4.10;;;7.20;99.90;;;;;;5047057;28;20424;-96
2022/04/04 13:03:53;;;;;;;9.90;4.50;;;5.20;99.90;;;;;;5049044;28;20064;-96
2022/04/04 13:12:03;;;;;;;9.13;4.20;;;6.10;99.90;;;;;;5021259;28;20046;-96
2022/04/04 13:17:41;;;;;;;9.00;3.80;;;6.30;99.90;;;;;;5073630;23;20505;-96
2022/04/04 13:20:19;;;;;;;8.67;3.33;;;5.30;99.90;;;;;;5044065;28;20045;-94
2022/04/04 13:22:44;;;;;;;8.93;3.30;;;6.20;99.90;;;;;;5259550;23;20045;-95
2022/04/04 13:28:02;;;;;;;8.10;3.40;;;6.30;99.90;;;;;;5075489;23;20060;-96
2022/04/04 13:30:28;;;;;;;8.17;3.60;;;6.30;99.90;;;;;;5000494;28;20053;-96
2022/04/04 13:36:58;;;;;;;9.07;3.60;;;7.00;99.90;;;;;;5317342;23;20057;-96
2022/04/04 13:39:27;;;;;;;9.77;3.77;;;5.60;99.90;;;;;;5028733;28;20050;-96
2022/04/04 13:42:36;;;;;;;7.87;3.23;;;7.20;99.90;;;;;;5034537;28;20045;-96